Time;durP1;ratioP1;P1;durP2;ratioP2;P2;SDS_P1;SDS_P2;PMS_P1;PMS_P2;Temp;Humidity;BMP_temperature;BMP_pressure;BME280_temperature;BME280_humidity;BME280_pressure;Samples;Min_cycle;Max_cycle;Signal;HPM_P1;HPM_P2
2021/01/19 00:01:22;;;;;;;18.30;3.25;;;20.60;90.10;;;;;;5091171;28;20423;-81
2021/01/19 00:03:49;;;;;;;16.45;3.35;;;20.60;90.30;;;;;;5108876;28;20386;-81
2021/01/19 00:06:17;;;;;;;17.33;3.42;;;20.70;90.20;;;;;;5095709;28;20419;-81
2021/01/19 00:08:44;;;;;;;17.67;3.30;;;20.80;90.30;;;;;;5094460;28;20402;-83
2021/01/19 00:11:11;;;;;;;21.75;3.78;;;20.70;90.40;;;;;;5107937;28;20383;-83
2021/01/19 00:13:38;;;;;;;16.55;3.63;;;21.00;90.40;;;;;;5096667;28;20752;-82
2021/01/19 00:16:05;;;;;;;22.67;3.83;;;21.30;89.30;;;;;;5100818;28;20428;-82
2021/01/19 00:18:32;;;;;;;20.35;3.58;;;21.40;88.50;;;;;;5098673;28;20391;-83
2021/01/19 00:20:59;;;;;;;19.10;3.97;;;21.50;89.70;;;;;;5106637;28;20913;-83
2021/01/19 00:23:26;;;;;;;19.95;4.13;;;21.60;87.40;;;;;;5106640;28;20857;-83
2021/01/19 00:25:53;;;;;;;17.08;3.58;;;21.70;85.30;;;;;;5099148;28;20392;-82
2021/01/19 00:28:20;;;;;;;15.50;3.13;;;21.70;84.40;;;;;;5110949;28;20389;-82
2021/01/19 00:30:47;;;;;;;24.65;3.90;;;21.70;84.20;;;;;;5106358;28;20380;-82
2021/01/19 00:33:14;;;;;;;16.77;3.83;;;21.80;84.90;;;;;;5084561;28;20400;-82
2021/01/19 00:35:42;;;;;;;14.95;3.50;;;21.80;83.00;;;;;;5112506;28;20382;-82
2021/01/19 00:38:10;;;;;;;19.87;3.77;;;22.20;82.90;;;;;;5112287;28;20376;-83
2021/01/19 00:40:37;;;;;;;17.05;3.70;;;22.00;82.60;;;;;;5100691;28;20525;-83
2021/01/19 00:43:04;;;;;;;14.05;3.25;;;21.90;84.50;;;;;;5102410;28;20787;-82
2021/01/19 00:45:31;;;;;;;16.30;3.60;;;21.60;83.10;;;;;;5108919;27;20493;-82
2021/01/19 00:47:59;;;;;;;16.02;3.45;;;22.30;82.10;;;;;;5096558;28;20485;-82
2021/01/19 00:50:26;;;;;;;13.65;3.00;;;23.00;79.00;;;;;;5097748;28;20400;-82
2021/01/19 00:52:53;;;;;;;16.48;3.22;;;23.50;77.70;;;;;;5099369;28;20368;-83
2021/01/19 00:55:20;;;;;;;21.45;3.85;;;23.40;76.10;;;;;;5100853;28;20395;-82
2021/01/19 00:57:47;;;;;;;18.38;3.70;;;23.30;76.30;;;;;;5105764;27;21061;-82
2021/01/19 01:00:16;;;;;;;16.77;3.47;;;22.60;78.10;;;;;;5102100;28;20442;-83
2021/01/19 01:02:43;;;;;;;15.30;2.97;;;22.40;78.70;;;;;;5103223;28;20370;-82
2021/01/19 01:05:11;;;;;;;17.60;3.08;;;22.80;78.30;;;;;;5110543;28;20792;-82
2021/01/19 01:07:41;;;;;;;19.75;3.72;;;23.10;77.10;;;;;;5093739;28;20381;-81
2021/01/19 01:10:11;;;;;;;15.52;3.13;;;23.10;78.70;;;;;;5109169;28;20392;-82
2021/01/19 01:12:40;;;;;;;15.32;3.28;;;23.40;77.60;;;;;;5109742;28;20393;-82
2021/01/19 01:15:09;;;;;;;12.77;2.95;;;23.70;74.70;;;;;;5100835;28;20484;-82
2021/01/19 01:17:42;;;;;;;13.05;3.30;;;23.90;73.70;;;;;;5091475;28;20400;-82
2021/01/19 01:20:10;;;;;;;10.75;2.67;;;23.50;74.10;;;;;;5090883;28;20380;-81
2021/01/19 01:22:45;;;;;;;18.52;3.67;;;23.20;76.50;;;;;;5103269;28;20394;-82
2021/01/19 01:25:16;;;;;;;12.07;3.10;;;23.40;77.00;;;;;;5092502;28;20831;-83
2021/01/19 01:27:45;;;;;;;17.90;3.37;;;23.20;75.20;;;;;;5116941;27;20377;-83
2021/01/19 01:30:14;;;;;;;17.08;3.20;;;23.00;77.70;;;;;;5092580;28;20400;-82
2021/01/19 01:32:43;;;;;;;14.88;3.17;;;22.80;78.80;;;;;;5090997;28;20379;-82
2021/01/19 01:35:11;;;;;;;12.68;2.67;;;22.60;78.50;;;;;;5115490;27;20393;-82
2021/01/19 01:37:47;;;;;;;15.52;2.78;;;22.90;79.20;;;;;;5110684;28;20390;-82
2021/01/19 01:40:18;;;;;;;17.70;2.87;;;23.00;78.70;;;;;;5127540;27;20381;-83
2021/01/19 01:42:45;;;;;;;14.50;2.95;;;23.40;78.90;;;;;;5108493;27;20864;-84
2021/01/19 01:45:19;;;;;;;16.77;3.08;;;22.90;77.40;;;;;;5097778;28;20404;-83
2021/01/19 01:47:51;;;;;;;11.60;2.85;;;23.00;77.70;;;;;;5109912;28;20378;-81
2021/01/19 01:50:19;;;;;;;13.10;2.92;;;22.80;78.30;;;;;;5101715;28;20413;-83
2021/01/19 01:52:46;;;;;;;15.27;2.90;;;22.90;78.60;;;;;;5107347;28;20390;-82
2021/01/19 01:55:16;;;;;;;11.70;2.78;;;23.30;79.60;;;;;;5101684;28;20395;-82
2021/01/19 01:57:43;;;;;;;14.88;3.10;;;23.50;80.10;;;;;;5105876;28;20382;-83
2021/01/19 02:00:12;;;;;;;11.40;2.55;;;23.30;76.60;;;;;;5103417;28;20400;-82
2021/01/19 02:03:05;;;;;;;15.93;3.60;;;23.10;77.30;;;;;;5109989;28;20379;-82
2021/01/19 02:05:32;;;;;;;11.20;2.97;;;22.60;79.50;;;;;;5103593;28;20398;-82
2021/01/19 02:08:33;;;;;;;13.60;3.38;;;22.30;80.00;;;;;;5096590;28;20396;-83
2021/01/19 02:11:23;;;;;;;16.55;3.28;;;22.40;80.10;;;;;;5096681;28;20408;-82
2021/01/19 02:14:15;;;;;;;14.55;3.10;;;22.70;79.80;;;;;;5103743;28;20394;-81
2021/01/19 02:17:05;;;;;;;16.90;3.00;;;22.80;79.70;;;;;;5110757;28;20379;-81
2021/01/19 02:19:55;;;;;;;14.30;2.97;;;22.50;80.20;;;;;;5100945;28;20870;-81
2021/01/19 02:22:59;;;;;;;18.83;3.85;;;22.20;82.60;;;;;;5082392;28;20798;-81
2021/01/19 02:25:32;;;;;;;19.90;3.92;;;22.10;81.70;;;;;;5103586;28;20393;-82
2021/01/19 02:28:23;;;;;;;15.27;3.25;;;21.90;81.80;;;;;;5109924;28;20645;-82
2021/01/19 02:31:11;;;;;;;16.13;3.55;;;21.90;83.20;;;;;;5097950;28;20766;-83
2021/01/19 02:34:17;;;;;;;16.95;3.90;;;22.00;83.00;;;;;;5109482;28;20806;-81
2021/01/19 02:37:06;;;;;;;14.05;3.75;;;21.90;81.20;;;;;;5106632;28;20390;-81
2021/01/19 02:39:51;;;;;;;19.27;3.47;;;21.70;83.10;;;;;;5110495;27;20470;-82
2021/01/19 02:42:24;;;;;;;18.97;3.60;;;21.40;82.90;;;;;;5104284;27;20390;-82
2021/01/19 02:44:54;;;;;;;15.30;3.87;;;21.20;83.90;;;;;;5108004;28;20503;-82
2021/01/19 02:47:21;;;;;;;17.85;3.38;;;21.30;83.80;;;;;;5102877;28;20402;-82
2021/01/19 02:49:48;;;;;;;19.13;3.92;;;21.10;82.80;;;;;;5097635;28;20410;-82
2021/01/19 02:52:16;;;;;;;19.52;3.97;;;21.20;83.20;;;;;;5099868;28;20451;-82
2021/01/19 02:54:44;;;;;;;20.25;3.63;;;21.30;84.50;;;;;;5101067;28;20387;-82
2021/01/19 02:57:52;;;;;;;20.50;3.95;;;21.20;82.70;;;;;;5093251;28;20376;-82
2021/01/19 03:00:28;;;;;;;21.10;4.80;;;21.10;84.40;;;;;;5100437;28;20391;-81
2021/01/19 03:02:58;;;;;;;22.73;4.97;;;20.90;86.30;;;;;;5106940;27;20390;-82
2021/01/19 03:05:27;;;;;;;24.02;5.05;;;20.90;86.90;;;;;;5104536;27;20380;-82
2021/01/19 03:07:56;;;;;;;23.48;4.95;;;21.10;86.30;;;;;;5101593;28;20494;-82
2021/01/19 03:10:23;;;;;;;27.45;4.88;;;21.00;86.00;;;;;;5104179;28;20415;-82
2021/01/19 03:12:50;;;;;;;20.33;4.43;;;20.80;86.20;;;;;;5109599;28;20454;-82
2021/01/19 03:15:18;;;;;;;26.10;4.90;;;20.60;86.70;;;;;;5102170;28;20388;-82
2021/01/19 03:17:45;;;;;;;23.30;5.03;;;20.50;88.50;;;;;;5111264;27;20900;-82
2021/01/19 03:20:14;;;;;;;25.38;4.72;;;20.50;89.30;;;;;;5119747;27;20402;-80
2021/01/19 03:22:42;;;;;;;20.97;4.80;;;20.50;88.00;;;;;;5102822;28;20390;-81
2021/01/19 03:25:09;;;;;;;28.67;5.37;;;20.60;88.80;;;;;;5104091;28;20398;-81
2021/01/19 03:27:37;;;;;;;21.08;4.60;;;20.70;87.70;;;;;;5107250;28;20386;-81
2021/01/19 03:30:05;;;;;;;22.00;5.03;;;20.60;87.30;;;;;;5118577;27;20765;-83
2021/01/19 03:32:32;;;;;;;23.92;4.80;;;20.60;87.50;;;;;;5106303;28;20393;-82
2021/01/19 03:34:59;;;;;;;23.85;4.97;;;20.60;89.10;;;;;;5101627;28;20910;-83
2021/01/19 03:37:26;;;;;;;27.27;5.40;;;20.60;87.60;;;;;;5106503;28;20481;-82
2021/01/19 03:39:53;;;;;;;24.58;5.00;;;20.40;87.70;;;;;;5105297;28;20462;-82
2021/01/19 03:42:20;;;;;;;24.60;4.97;;;20.20;87.20;;;;;;5097325;28;20392;-82
2021/01/19 03:44:47;;;;;;;20.88;4.22;;;20.20;88.40;;;;;;5104717;28;20401;-82
2021/01/19 03:47:14;;;;;;;19.70;4.43;;;20.10;87.90;;;;;;5098578;28;20895;-82
2021/01/19 03:49:41;;;;;;;25.60;4.30;;;20.00;87.50;;;;;;5088592;28;20435;-82
2021/01/19 03:52:08;;;;;;;24.88;5.15;;;20.00;87.40;;;;;;5093394;28;20479;-81
2021/01/19 03:54:35;;;;;;;16.38;4.18;;;19.90;87.90;;;;;;5103440;28;20722;-82
2021/01/19 03:57:02;;;;;;;21.58;4.82;;;19.90;87.10;;;;;;5097175;28;20382;-82
2021/01/19 03:59:29;;;;;;;21.63;4.57;;;20.00;88.60;;;;;;5112663;28;20423;-82
2021/01/19 04:01:56;;;;;;;22.37;4.60;;;20.00;86.60;;;;;;5092902;28;20384;-82
2021/01/19 04:04:23;;;;;;;26.13;4.50;;;20.10;86.60;;;;;;5093363;28;20887;-82
2021/01/19 04:06:50;;;;;;;26.13;4.93;;;20.10;85.60;;;;;;5107436;28;20388;-82
2021/01/19 04:09:17;;;;;;;23.02;4.40;;;20.10;86.20;;;;;;5092390;28;20878;-82
2021/01/19 04:11:45;;;;;;;22.58;4.53;;;20.30;86.50;;;;;;5101961;28;20888;-82
2021/01/19 04:14:12;;;;;;;21.65;4.65;;;20.30;84.90;;;;;;5100998;27;20403;-81
2021/01/19 04:16:39;;;;;;;26.13;4.72;;;20.40;85.30;;;;;;5110439;28;20428;-81
2021/01/19 04:19:06;;;;;;;22.75;4.72;;;20.50;84.20;;;;;;5094400;28;20499;-82
2021/01/19 04:21:33;;;;;;;21.25;4.75;;;20.50;84.00;;;;;;5109728;28;20393;-81
2021/01/19 04:24:00;;;;;;;22.88;5.25;;;20.50;83.60;;;;;;5100520;28;20903;-81
2021/01/19 04:26:27;;;;;;;23.02;4.57;;;20.50;84.80;;;;;;5109519;28;20422;-82
2021/01/19 04:28:55;;;;;;;26.90;5.47;;;20.40;85.00;;;;;;5099724;28;20417;-82
2021/01/19 04:31:22;;;;;;;25.95;5.20;;;20.40;84.40;;;;;;5098848;28;20428;-82
2021/01/19 04:33:49;;;;;;;25.45;5.43;;;20.50;86.30;;;;;;5106014;28;20437;-82
2021/01/19 04:36:16;;;;;;;23.63;5.60;;;20.70;84.00;;;;;;5100743;28;20391;-83
2021/01/19 04:38:43;;;;;;;23.10;5.25;;;20.80;82.60;;;;;;5097873;28;20516;-83
2021/01/19 04:41:11;;;;;;;26.77;5.38;;;20.80;83.10;;;;;;5110788;28;20485;-84
2021/01/19 04:43:39;;;;;;;26.55;5.18;;;20.90;83.00;;;;;;5098042;28;20399;-83
2021/01/19 04:46:09;;;;;;;24.75;4.95;;;21.00;82.60;;;;;;5111669;28;20394;-83
2021/01/19 04:48:37;;;;;;;25.70;5.13;;;20.80;82.00;;;;;;5104129;28;20390;-83
2021/01/19 04:51:05;;;;;;;24.27;5.03;;;20.60;83.00;;;;;;5096228;28;20875;-82
2021/01/19 04:53:38;;;;;;;21.02;4.57;;;20.50;83.50;;;;;;5103321;28;20375;-83
2021/01/19 04:56:12;;;;;;;26.40;5.35;;;20.50;83.60;;;;;;5112445;28;20470;-82
2021/01/19 04:58:43;;;;;;;23.50;5.63;;;20.60;82.90;;;;;;5096037;28;20383;-82
2021/01/19 05:01:20;;;;;;;28.40;5.60;;;20.50;84.60;;;;;;5103109;28;20389;-82
2021/01/19 05:03:57;;;;;;;28.10;6.35;;;20.60;85.20;;;;;;5091513;28;20364;-82
2021/01/19 05:06:36;;;;;;;24.95;5.20;;;20.60;85.00;;;;;;5091448;28;20383;-82
2021/01/19 05:09:11;;;;;;;22.93;5.00;;;20.60;85.70;;;;;;5094268;28;20431;-81
2021/01/19 05:12:02;;;;;;;24.55;5.43;;;20.70;84.20;;;;;;5097761;28;20490;-82
2021/01/19 05:14:39;;;;;;;33.40;5.95;;;20.70;84.90;;;;;;5107185;28;20397;-81
2021/01/19 05:17:07;;;;;;;28.55;6.22;;;20.80;83.50;;;;;;5108107;28;20401;-83
2021/01/19 05:19:38;;;;;;;26.05;5.65;;;20.80;83.60;;;;;;5108155;28;20400;-82
2021/01/19 05:22:11;;;;;;;32.33;5.63;;;20.80;84.10;;;;;;5091557;28;20387;-82
2021/01/19 05:24:41;;;;;;;30.40;6.18;;;20.80;84.20;;;;;;5098493;28;20406;-83
2021/01/19 05:27:12;;;;;;;26.20;5.83;;;20.60;83.80;;;;;;5111374;28;20370;-82
2021/01/19 05:29:40;;;;;;;27.40;6.03;;;20.50;84.80;;;;;;5100563;28;20501;-82
2021/01/19 05:32:07;;;;;;;30.70;5.93;;;20.30;83.70;;;;;;5108065;28;20432;-82
2021/01/19 05:34:38;;;;;;;26.80;6.45;;;20.20;85.20;;;;;;5094435;28;20438;-82
2021/01/19 05:37:05;;;;;;;30.27;6.00;;;20.20;85.40;;;;;;5091023;28;20852;-82
2021/01/19 05:39:32;;;;;;;27.42;5.57;;;20.30;85.80;;;;;;5093259;28;20380;-80
2021/01/19 05:41:59;;;;;;;26.55;5.95;;;20.30;85.60;;;;;;5105908;28;20822;-82
2021/01/19 05:44:30;;;;;;;22.70;5.50;;;20.30;84.90;;;;;;5110502;28;20441;-82
2021/01/19 05:47:06;;;;;;;27.60;5.60;;;20.30;86.20;;;;;;5104838;28;20453;-83
2021/01/19 05:49:43;;;;;;;27.15;5.40;;;20.20;85.10;;;;;;5110166;28;20905;-81
2021/01/19 05:52:12;;;;;;;25.92;5.15;;;20.10;84.90;;;;;;5110722;28;20367;-81
2021/01/19 05:54:47;;;;;;;23.17;5.05;;;20.10;85.30;;;;;;5107921;28;20397;-82
2021/01/19 05:57:19;;;;;;;30.07;5.97;;;20.00;84.70;;;;;;5104780;28;20386;-81
2021/01/19 05:59:48;;;;;;;30.45;6.35;;;19.80;85.40;;;;;;5102162;28;20906;-82
2021/01/19 06:02:16;;;;;;;34.90;6.77;;;19.90;85.60;;;;;;5091640;28;20389;-85
2021/01/19 06:04:51;;;;;;;33.35;6.68;;;20.00;85.90;;;;;;5100228;28;20455;-82
2021/01/19 06:07:21;;;;;;;29.57;5.90;;;20.00;86.00;;;;;;5102510;28;20382;-83
2021/01/19 06:09:48;;;;;;;23.95;5.85;;;20.00;86.30;;;;;;5092081;28;20794;-83
2021/01/19 06:12:18;;;;;;;26.08;5.75;;;20.00;86.50;;;;;;5101105;28;20410;-82
2021/01/19 06:14:53;;;;;;;24.45;5.63;;;20.00;86.30;;;;;;5098527;28;20373;-82
2021/01/19 06:17:22;;;;;;;28.10;5.72;;;20.00;85.40;;;;;;5090770;28;20774;-82
2021/01/19 06:19:59;;;;;;;28.67;5.90;;;19.90;84.80;;;;;;5089508;28;20871;-82
2021/01/19 06:22:27;;;;;;;25.75;5.85;;;19.90;84.40;;;;;;5098887;28;20390;-83
2021/01/19 06:24:57;;;;;;;27.55;6.22;;;19.90;85.40;;;;;;5109694;28;20425;-81
2021/01/19 06:27:24;;;;;;;28.17;5.80;;;19.80;85.90;;;;;;5105064;28;20382;-82
2021/01/19 06:30:01;;;;;;;24.92;5.47;;;19.90;86.70;;;;;;5108639;28;20513;-80
2021/01/19 06:32:30;;;;;;;25.75;6.05;;;19.90;85.00;;;;;;5091667;28;20369;-81
2021/01/19 06:35:18;;;;;;;28.10;5.65;;;19.80;84.80;;;;;;5089997;28;20402;-82
2021/01/19 06:37:48;;;;;;;23.52;5.80;;;19.80;85.70;;;;;;5092562;28;20397;-83
2021/01/19 06:40:17;;;;;;;23.27;4.95;;;19.70;85.90;;;;;;5092757;28;20890;-82
2021/01/19 06:43:02;;;;;;;27.77;5.63;;;19.70;86.10;;;;;;5108161;28;20454;-82
2021/01/19 06:45:30;;;;;;;28.67;5.78;;;19.60;86.50;;;;;;5106102;28;20459;-81
2021/01/19 06:48:01;;;;;;;21.97;5.10;;;19.50;86.60;;;;;;5092848;28;20466;-82
2021/01/19 06:50:30;;;;;;;25.63;5.20;;;19.40;87.10;;;;;;5104109;28;20396;-82
2021/01/19 06:53:14;;;;;;;26.50;5.82;;;19.40;86.50;;;;;;5107714;28;20728;-82
2021/01/19 06:55:59;;;;;;;25.02;5.65;;;19.40;86.80;;;;;;5103810;28;20379;-82
2021/01/19 06:58:32;;;;;;;31.90;6.38;;;19.30;86.80;;;;;;5107457;28;20715;-81
2021/01/19 07:01:00;;;;;;;28.73;5.97;;;19.40;87.20;;;;;;5098838;28;20412;-82
2021/01/19 07:03:27;;;;;;;24.23;5.78;;;19.40;86.70;;;;;;5102632;28;20387;-83
2021/01/19 07:06:07;;;;;;;25.85;5.18;;;19.40;87.20;;;;;;5107445;28;20390;-83
2021/01/19 07:08:58;;;;;;;27.17;5.57;;;19.40;87.60;;;;;;5107739;28;20398;-82
2021/01/19 07:11:38;;;;;;;25.63;5.20;;;19.40;87.70;;;;;;5107002;28;20390;-83
2021/01/19 07:14:37;;;;;;;25.85;6.10;;;19.40;87.50;;;;;;5106636;28;20382;-82
2021/01/19 07:17:10;;;;;;;25.00;5.80;;;19.40;87.40;;;;;;5105354;28;20482;-84
2021/01/19 07:20:01;;;;;;;22.17;5.28;;;19.40;88.00;;;;;;5105991;28;20397;-83
2021/01/19 07:22:58;;;;;;;33.45;5.72;;;19.30;88.70;;;;;;5110085;28;20420;-82
2021/01/19 07:25:27;;;;;;;27.73;5.43;;;19.30;88.40;;;;;;5108388;28;20394;-82
2021/01/19 07:27:56;;;;;;;24.25;5.82;;;19.20;88.10;;;;;;5116455;28;20395;-82
2021/01/19 07:30:24;;;;;;;28.70;6.28;;;19.30;88.40;;;;;;5111393;28;20387;-82
2021/01/19 07:32:54;;;;;;;25.73;6.20;;;19.30;88.60;;;;;;5108267;28;20544;-82
2021/01/19 07:35:23;;;;;;;25.50;5.45;;;19.30;88.70;;;;;;5104928;28;20410;-83
2021/01/19 07:38:00;;;;;;;25.27;4.82;;;19.30;88.20;;;;;;5101309;28;20403;-83
2021/01/19 07:40:27;;;;;;;23.15;5.53;;;19.20;88.60;;;;;;5105901;28;20443;-83
2021/01/19 07:42:54;;;;;;;25.35;5.60;;;19.20;88.20;;;;;;5099732;28;20389;-83
2021/01/19 07:45:32;;;;;;;26.25;5.60;;;19.30;87.90;;;;;;5096842;28;20400;-83
2021/01/19 07:48:09;;;;;;;28.52;5.07;;;19.30;87.50;;;;;;5107806;28;20386;-83
2021/01/19 07:50:54;;;;;;;27.35;5.75;;;19.20;87.00;;;;;;5103141;28;20459;-83
2021/01/19 07:53:21;;;;;;;30.25;5.57;;;19.20;87.70;;;;;;5100410;28;20417;-82
2021/01/19 07:55:48;;;;;;;30.30;5.82;;;19.10;87.40;;;;;;5106490;28;20402;-82
2021/01/19 07:58:22;;;;;;;24.67;5.43;;;19.20;87.70;;;;;;5099335;28;20392;-82
2021/01/19 08:00:58;;;;;;;26.20;5.10;;;19.20;87.10;;;;;;5107614;28;20431;-82
2021/01/19 08:03:30;;;;;;;25.20;5.18;;;19.20;86.90;;;;;;5098885;28;20765;-83
2021/01/19 08:06:09;;;;;;;23.25;4.93;;;19.20;87.50;;;;;;5121667;28;20473;-82
2021/01/19 08:08:40;;;;;;;18.75;5.03;;;19.20;86.80;;;;;;5110476;28;20543;-82
2021/01/19 08:11:19;;;;;;;19.85;4.20;;;19.10;86.90;;;;;;5091069;28;20400;-84
2021/01/19 08:14:00;;;;;;;22.60;4.88;;;19.20;86.30;;;;;;5103484;28;20873;-83
2021/01/19 08:16:37;;;;;;;24.90;4.93;;;19.20;86.60;;;;;;5105148;28;20383;-82
2021/01/19 08:19:11;;;;;;;18.60;4.60;;;19.10;87.30;;;;;;5088536;28;20376;-82
2021/01/19 08:21:52;;;;;;;18.63;4.68;;;19.10;88.90;;;;;;5098167;28;20371;-82
2021/01/19 08:24:24;;;;;;;21.73;4.93;;;19.10;90.00;;;;;;5109347;28;20378;-83
2021/01/19 08:26:53;;;;;;;20.58;3.88;;;19.00;90.20;;;;;;5090387;28;20379;-80
2021/01/19 08:29:22;;;;;;;18.15;4.13;;;18.90;90.10;;;;;;5109063;28;20410;-83
2021/01/19 08:31:57;;;;;;;18.57;3.60;;;18.90;90.20;;;;;;5109460;28;20452;-84
2021/01/19 08:34:26;;;;;;;17.67;4.37;;;18.90;90.40;;;;;;5123724;28;20438;-82
2021/01/19 08:36:54;;;;;;;21.00;4.63;;;19.00;90.30;;;;;;5120362;28;20386;-82
2021/01/19 08:39:22;;;;;;;19.42;4.38;;;18.90;90.20;;;;;;5104229;28;20440;-82
2021/01/19 08:41:51;;;;;;;16.63;4.07;;;18.90;90.40;;;;;;5108164;28;20388;-81
2021/01/19 08:44:19;;;;;;;20.85;4.18;;;18.90;90.50;;;;;;5112908;28;20387;-81
2021/01/19 08:46:47;;;;;;;19.65;4.40;;;18.90;90.60;;;;;;5096483;28;20400;-82
2021/01/19 08:49:17;;;;;;;20.98;4.47;;;19.00;90.20;;;;;;5094908;28;20405;-84
2021/01/19 08:51:48;;;;;;;21.02;4.22;;;19.00;90.30;;;;;;5109983;27;20901;-82
2021/01/19 08:54:20;;;;;;;15.68;4.25;;;18.90;90.40;;;;;;5106547;28;20394;-84
2021/01/19 08:56:47;;;;;;;18.73;4.35;;;18.90;90.60;;;;;;5102446;28;20378;-82
2021/01/19 08:59:15;;;;;;;14.40;3.58;;;18.90;90.80;;;;;;5106967;28;20463;-82
2021/01/19 09:01:50;;;;;;;15.48;3.30;;;18.80;91.20;;;;;;5095545;28;20443;-83
2021/01/19 09:04:28;;;;;;;12.52;3.53;;;18.70;91.50;;;;;;5107826;28;20430;-83
2021/01/19 09:07:13;;;;;;;12.15;2.92;;;18.70;91.30;;;;;;5096031;28;20724;-82
2021/01/19 09:09:46;;;;;;;12.90;2.75;;;18.60;91.60;;;;;;5105334;28;20411;-83
2021/01/19 09:12:32;;;;;;;15.23;3.67;;;18.60;91.50;;;;;;5107741;27;20390;-83
2021/01/19 09:15:00;;;;;;;14.27;3.28;;;18.60;91.50;;;;;;5095111;28;20400;-82
2021/01/19 09:17:27;;;;;;;14.50;3.00;;;18.60;91.60;;;;;;5080794;28;20392;-82
2021/01/19 09:20:05;;;;;;;10.85;2.80;;;18.60;91.50;;;;;;5092131;28;20547;-83
2021/01/19 09:22:54;;;;;;;14.38;3.20;;;18.50;91.50;;;;;;5089174;28;20744;-83
2021/01/19 09:25:23;;;;;;;13.90;3.17;;;18.50;91.60;;;;;;5104715;28;20389;-83
2021/01/19 09:28:02;;;;;;;16.75;3.10;;;18.50;91.60;;;;;;5104474;28;20482;-83
2021/01/19 09:30:34;;;;;;;23.70;3.90;;;18.50;91.60;;;;;;5103333;28;20406;-83
2021/01/19 09:33:07;;;;;;;12.68;2.88;;;18.60;92.20;;;;;;5115429;27;20449;-82
2021/01/19 09:35:35;;;;;;;15.93;4.03;;;18.40;93.30;;;;;;5109624;27;20378;-83
2021/01/19 09:38:03;;;;;;;17.65;2.97;;;18.30;93.90;;;;;;5093019;28;20911;-82
2021/01/19 09:40:34;;;;;;;14.93;3.00;;;18.10;94.70;;;;;;5106016;28;20489;-83
2021/01/19 09:43:18;;;;;;;13.80;3.35;;;18.00;95.00;;;;;;5090790;28;20408;-84
2021/01/19 09:45:46;;;;;;;12.35;3.13;;;18.00;95.50;;;;;;5096023;28;20453;-82
2021/01/19 09:48:15;;;;;;;15.40;2.72;;;17.90;95.70;;;;;;5089252;28;20838;-83
2021/01/19 09:50:42;;;;;;;10.82;3.10;;;17.90;95.50;;;;;;5104536;28;20763;-83
2021/01/19 09:53:09;;;;;;;13.38;2.95;;;17.80;95.90;;;;;;5104737;28;20787;-82
2021/01/19 09:55:37;;;;;;;11.55;2.88;;;17.80;96.10;;;;;;5099460;28;20399;-84
2021/01/19 09:58:05;;;;;;;15.75;3.40;;;17.80;96.40;;;;;;5107001;28;20477;-83
2021/01/19 10:00:37;;;;;;;9.95;2.60;;;17.70;96.50;;;;;;5108547;28;20375;-84
2021/01/19 10:03:15;;;;;;;10.70;2.50;;;17.70;97.00;;;;;;5103586;28;20824;-84
2021/01/19 10:05:58;;;;;;;14.88;3.28;;;17.70;97.10;;;;;;5096336;28;20400;-82
2021/01/19 10:08:26;;;;;;;17.60;3.00;;;17.60;97.00;;;;;;5098739;28;21037;-83
2021/01/19 10:10:54;;;;;;;15.77;3.20;;;17.60;97.00;;;;;;5101290;28;20893;-83
2021/01/19 10:13:34;;;;;;;15.43;3.20;;;17.70;97.20;;;;;;5099585;28;20379;-84
2021/01/19 10:16:09;;;;;;;15.90;3.17;;;17.70;97.20;;;;;;5100891;28;20399;-84
2021/01/19 10:18:36;;;;;;;12.40;2.92;;;17.70;97.10;;;;;;5100124;28;20398;-83
2021/01/19 10:21:03;;;;;;;12.10;3.00;;;17.80;97.10;;;;;;5099634;28;21172;-85
2021/01/19 10:23:32;;;;;;;12.70;2.70;;;17.70;96.90;;;;;;5093981;28;20414;-84
2021/01/19 10:26:28;;;;;;;10.88;2.63;;;17.80;96.80;;;;;;5100740;28;20418;-83
2021/01/19 10:28:59;;;;;;;12.63;2.95;;;17.90;96.30;;;;;;5101628;27;20405;-84
2021/01/19 10:31:27;;;;;;;14.15;3.10;;;17.90;96.30;;;;;;5105448;27;20463;-83
2021/01/19 10:34:14;;;;;;;14.57;3.03;;;17.90;96.10;;;;;;5128221;27;20752;-82
2021/01/19 10:36:52;;;;;;;14.07;2.77;;;17.90;95.80;;;;;;5113177;27;20369;-84
2021/01/19 10:39:24;;;;;;;11.38;2.78;;;17.90;95.40;;;;;;5094665;28;20388;-83
2021/01/19 10:41:53;;;;;;;13.47;2.47;;;17.90;95.10;;;;;;5092660;27;20399;-84
2021/01/19 10:44:24;;;;;;;12.18;2.65;;;17.90;95.20;;;;;;5095445;28;20485;-84
2021/01/19 10:47:04;;;;;;;11.35;2.55;;;17.90;95.00;;;;;;5107541;28;20382;-84
2021/01/19 10:49:32;;;;;;;10.70;2.30;;;17.90;94.90;;;;;;5104089;28;20509;-84
2021/01/19 10:52:03;;;;;;;11.30;2.80;;;18.00;94.50;;;;;;5082475;28;20473;-84
2021/01/19 10:54:30;;;;;;;12.38;2.60;;;18.10;94.40;;;;;;5104397;28;20394;-84
2021/01/19 10:57:05;;;;;;;10.88;2.50;;;18.10;94.30;;;;;;5099343;28;20391;-83
2021/01/19 10:59:33;;;;;;;12.05;2.63;;;18.10;94.50;;;;;;5105950;28;20412;-84
2021/01/19 11:02:00;;;;;;;11.30;2.88;;;18.10;94.50;;;;;;5096576;28;20406;-82
2021/01/19 11:04:28;;;;;;;12.75;2.35;;;18.10;94.40;;;;;;5106467;28;21034;-84
2021/01/19 11:06:55;;;;;;;11.40;2.35;;;18.10;94.30;;;;;;5106765;28;21084;-84
2021/01/19 11:09:22;;;;;;;11.50;3.10;;;18.10;94.40;;;;;;5105724;28;20410;-83
2021/01/19 11:11:49;;;;;;;13.23;2.63;;;18.00;94.80;;;;;;5093963;28;20399;-83
2021/01/19 11:14:16;;;;;;;15.05;2.63;;;18.00;94.80;;;;;;5092631;28;20391;-83
2021/01/19 11:16:44;;;;;;;14.07;2.90;;;18.00;95.00;;;;;;5090984;28;20941;-83
2021/01/19 11:19:15;;;;;;;13.15;2.42;;;18.00;95.10;;;;;;5088891;28;20873;-84
2021/01/19 11:21:43;;;;;;;10.02;2.53;;;17.90;95.00;;;;;;5105828;28;20398;-83
2021/01/19 11:24:12;;;;;;;11.88;2.50;;;17.90;95.00;;;;;;5106696;28;20377;-83
2021/01/19 11:26:42;;;;;;;15.85;3.17;;;17.90;95.10;;;;;;5103523;28;20418;-83
2021/01/19 11:29:09;;;;;;;13.98;2.85;;;18.00;95.20;;;;;;5102493;28;20414;-84
2021/01/19 11:31:38;;;;;;;11.70;2.42;;;18.00;95.10;;;;;;5105370;28;20765;-84
2021/01/19 11:34:07;;;;;;;10.48;2.70;;;18.00;95.00;;;;;;5098561;28;20437;-83
2021/01/19 11:36:38;;;;;;;11.03;2.70;;;18.10;94.70;;;;;;5096599;28;20378;-83
2021/01/19 11:39:08;;;;;;;13.40;2.95;;;18.20;94.50;;;;;;5090761;28;20481;-83
2021/01/19 11:41:36;;;;;;;12.40;2.53;;;18.20;94.80;;;;;;5089052;28;20584;-84
2021/01/19 11:44:06;;;;;;;11.82;2.90;;;18.10;95.20;;;;;;5092443;28;20400;-83
2021/01/19 11:46:34;;;;;;;15.02;2.90;;;18.00;95.80;;;;;;5095434;28;20485;-82
2021/01/19 11:49:03;;;;;;;12.13;2.75;;;18.00;96.20;;;;;;5102844;28;20420;-82
2021/01/19 11:51:36;;;;;;;13.13;2.63;;;17.90;96.70;;;;;;5094421;28;20396;-83
2021/01/19 11:54:05;;;;;;;15.95;2.88;;;17.80;97.40;;;;;;5096812;28;20403;-82
2021/01/19 11:56:39;;;;;;;14.10;2.83;;;17.70;98.10;;;;;;5100736;28;20823;-82
2021/01/19 11:59:08;;;;;;;14.23;2.90;;;17.60;98.80;;;;;;5089412;28;20458;-82
2021/01/19 12:01:39;;;;;;;12.37;2.60;;;17.40;99.20;;;;;;5105912;28;20470;-84
2021/01/19 12:04:07;;;;;;;17.08;2.97;;;17.30;99.70;;;;;;5109626;28;20378;-84
2021/01/19 12:06:38;;;;;;;12.35;2.83;;;17.30;99.90;;;;;;5105724;28;20974;-84
2021/01/19 12:09:10;;;;;;;12.93;2.58;;;17.30;99.40;;;;;;5090500;28;20408;-84
2021/01/19 12:11:51;;;;;;;12.52;2.70;;;17.30;98.90;;;;;;5109184;28;20371;-84
2021/01/19 12:14:19;;;;;;;9.35;2.42;;;17.30;99.10;;;;;;5098445;28;20400;-83
2021/01/19 12:16:47;;;;;;;13.53;3.40;;;17.40;98.10;;;;;;5106636;28;20703;-84
2021/01/19 12:19:14;;;;;;;13.27;2.92;;;17.30;98.30;;;;;;5106063;28;20572;-83
2021/01/19 12:21:53;;;;;;;12.80;2.75;;;17.40;98.50;;;;;;5107416;28;20383;-83
2021/01/19 12:24:21;;;;;;;11.90;2.60;;;17.30;98.30;;;;;;5100579;28;20554;-83
2021/01/19 12:26:50;;;;;;;13.18;2.55;;;17.30;98.00;;;;;;5103023;28;20382;-83
2021/01/19 12:29:19;;;;;;;15.50;2.90;;;17.30;98.20;;;;;;5093721;28;20625;-83
2021/01/19 12:31:47;;;;;;;11.95;2.83;;;17.30;97.90;;;;;;5101825;28;20393;-83
2021/01/19 12:34:15;;;;;;;10.10;2.25;;;17.30;98.00;;;;;;5093787;28;20392;-82
2021/01/19 12:36:42;;;;;;;12.93;2.60;;;17.40;98.10;;;;;;5097654;28;20381;-82
2021/01/19 12:39:09;;;;;;;17.23;2.88;;;17.40;97.80;;;;;;5108054;28;20742;-84
2021/01/19 12:41:36;;;;;;;14.77;3.10;;;17.50;97.90;;;;;;5099586;28;20431;-82
2021/01/19 12:44:07;;;;;;;16.70;3.35;;;17.50;98.10;;;;;;5106343;28;20417;-82
2021/01/19 12:46:34;;;;;;;15.80;3.75;;;17.50;98.50;;;;;;5109467;28;20409;-83
2021/01/19 12:49:01;;;;;;;15.52;3.40;;;17.40;99.20;;;;;;5101048;28;20416;-83
2021/01/19 12:51:28;;;;;;;19.30;3.67;;;17.40;99.60;;;;;;5097979;28;20418;-83
2021/01/19 12:53:55;;;;;;;15.27;3.20;;;17.30;99.90;;;;;;5110348;28;20396;-82
2021/01/19 12:56:22;;;;;;;17.80;3.60;;;17.20;99.90;;;;;;5111788;28;20382;-84
2021/01/19 12:58:50;;;;;;;19.63;3.85;;;17.30;99.90;;;;;;5111626;28;20978;-84